sensor_id;sensor_type;location;lat;lon;timestamp;temperature;humidity
62154;DHT22;48140;45.486;9.226;2023-04-24T00:01:48;14.20;99.90
62154;DHT22;48140;45.486;9.226;2023-04-24T00:04:14;14.20;99.90
62154;DHT22;48140;45.486;9.226;2023-04-24T00:06:42;14.10;99.90
62154;DHT22;48140;45.486;9.226;2023-04-24T00:09:09;14.20;99.90
62154;DHT22;48140;45.486;9.226;2023-04-24T00:11:36;14.20;99.90
62154;DHT22;48140;45.486;9.226;2023-04-24T00:14:02;14.30;99.90
62154;DHT22;48140;45.486;9.226;2023-04-24T00:16:28;14.30;99.90
62154;DHT22;48140;45.486;9.226;2023-04-24T00:18:54;14.40;99.90
62154;DHT22;48140;45.486;9.226;2023-04-24T00:21:19;14.40;99.90
62154;DHT22;48140;45.486;9.226;2023-04-24T00:23:46;14.40;99.90
62154;DHT22;48140;45.486;9.226;2023-04-24T00:26:11;14.50;99.90
62154;DHT22;48140;45.486;9.226;2023-04-24T00:28:37;14.50;99.90
62154;DHT22;48140;45.486;9.226;2023-04-24T00:31:02;14.40;99.90
62154;DHT22;48140;45.486;9.226;2023-04-24T00:33:28;14.50;99.90
62154;DHT22;48140;45.486;9.226;2023-04-24T00:35:53;14.40;99.90
62154;DHT22;48140;45.486;9.226;2023-04-24T00:38:19;14.50;99.90
62154;DHT22;48140;45.486;9.226;2023-04-24T00:40:45;14.50;99.90
62154;DHT22;48140;45.486;9.226;2023-04-24T00:43:11;14.40;99.90
62154;DHT22;48140;45.486;9.226;2023-04-24T00:45:37;14.30;99.90
62154;DHT22;48140;45.486;9.226;2023-04-24T00:48:03;14.30;99.90
62154;DHT22;48140;45.486;9.226;2023-04-24T00:50:29;14.30;99.90
62154;DHT22;48140;45.486;9.226;2023-04-24T00:52:55;14.30;99.90
62154;DHT22;48140;45.486;9.226;2023-04-24T00:55:21;14.20;99.90
62154;DHT22;48140;45.486;9.226;2023-04-24T00:57:47;14.20;99.90
62154;DHT22;48140;45.486;9.226;2023-04-24T01:00:15;14.10;99.90
62154;DHT22;48140;45.486;9.226;2023-04-24T01:05:17;14.10;99.90
62154;DHT22;48140;45.486;9.226;2023-04-24T01:07:45;14.10;99.90
62154;DHT22;48140;45.486;9.226;2023-04-24T01:10:11;14.10;99.90
62154;DHT22;48140;45.486;9.226;2023-04-24T01:12:38;14.00;99.90
62154;DHT22;48140;45.486;9.226;2023-04-24T01:15:04;14.10;99.90
62154;DHT22;48140;45.486;9.226;2023-04-24T01:17:32;14.10;99.90
62154;DHT22;48140;45.486;9.226;2023-04-24T01:19:58;14.10;99.90
62154;DHT22;48140;45.486;9.226;2023-04-24T01:22:26;14.10;99.90
62154;DHT22;48140;45.486;9.226;2023-04-24T01:27:27;14.10;99.90
62154;DHT22;48140;45.486;9.226;2023-04-24T01:29:53;14.10;99.90
62154;DHT22;48140;45.486;9.226;2023-04-24T01:32:19;14.10;99.90
62154;DHT22;48140;45.486;9.226;2023-04-24T01:34:45;14.10;99.90
62154;DHT22;48140;45.486;9.226;2023-04-24T01:37:11;14.10;99.90
62154;DHT22;48140;45.486;9.226;2023-04-24T01:39:37;14.10;99.90
62154;DHT22;48140;45.486;9.226;2023-04-24T01:42:04;14.10;99.90
62154;DHT22;48140;45.486;9.226;2023-04-24T01:44:30;14.20;99.90
62154;DHT22;48140;45.486;9.226;2023-04-24T01:46:56;14.20;99.90
62154;DHT22;48140;45.486;9.226;2023-04-24T01:49:22;14.20;99.90
62154;DHT22;48140;45.486;9.226;2023-04-24T01:51:48;14.30;99.90
62154;DHT22;48140;45.486;9.226;2023-04-24T01:54:13;14.30;99.90
62154;DHT22;48140;45.486;9.226;2023-04-24T01:56:41;14.30;99.90
62154;DHT22;48140;45.486;9.226;2023-04-24T01:59:11;14.30;99.90
62154;DHT22;48140;45.486;9.226;2023-04-24T02:01:37;14.30;99.90
62154;DHT22;48140;45.486;9.226;2023-04-24T02:04:07;14.30;99.90
62154;DHT22;48140;45.486;9.226;2023-04-24T02:06:33;14.30;99.90
62154;DHT22;48140;45.486;9.226;2023-04-24T02:09:00;14.40;99.90
62154;DHT22;48140;45.486;9.226;2023-04-24T02:11:26;14.30;99.90
62154;DHT22;48140;45.486;9.226;2023-04-24T02:13:52;14.30;99.90
62154;DHT22;48140;45.486;9.226;2023-04-24T02:16:18;14.30;99.90
62154;DHT22;48140;45.486;9.226;2023-04-24T02:18:44;14.40;99.90
62154;DHT22;48140;45.486;9.226;2023-04-24T02:21:10;14.40;99.90
62154;DHT22;48140;45.486;9.226;2023-04-24T02:23:36;14.40;99.90
62154;DHT22;48140;45.486;9.226;2023-04-24T02:26:02;14.50;99.90
62154;DHT22;48140;45.486;9.226;2023-04-24T02:28:27;14.40;99.90
62154;DHT22;48140;45.486;9.226;2023-04-24T02:30:53;14.40;99.90
62154;DHT22;48140;45.486;9.226;2023-04-24T02:33:19;14.60;99.90
62154;DHT22;48140;45.486;9.226;2023-04-24T02:35:46;14.40;99.90
62154;DHT22;48140;45.486;9.226;2023-04-24T02:38:12;14.40;99.90
62154;DHT22;48140;45.486;9.226;2023-04-24T03:38:34;13.70;99.90
62154;DHT22;48140;45.486;9.226;2023-04-24T03:41:00;13.70;99.90
62154;DHT22;48140;45.486;9.226;2023-04-24T03:43:27;13.60;99.90
62154;DHT22;48140;45.486;9.226;2023-04-24T03:45:53;13.70;99.90
62154;DHT22;48140;45.486;9.226;2023-04-24T03:48:19;13.60;99.90
62154;DHT22;48140;45.486;9.226;2023-04-24T03:50:45;13.70;99.90
62154;DHT22;48140;45.486;9.226;2023-04-24T03:53:11;13.70;99.90
62154;DHT22;48140;45.486;9.226;2023-04-24T03:55:36;13.70;99.90
62154;DHT22;48140;45.486;9.226;2023-04-24T03:58:02;13.70;99.90
62154;DHT22;48140;45.486;9.226;2023-04-24T04:00:28;13.60;99.90
62154;DHT22;48140;45.486;9.226;2023-04-24T04:02:53;13.60;99.90
62154;DHT22;48140;45.486;9.226;2023-04-24T04:05:19;13.60;99.90
62154;DHT22;48140;45.486;9.226;2023-04-24T04:07:45;13.60;99.90
62154;DHT22;48140;45.486;9.226;2023-04-24T04:10:10;13.60;99.90
62154;DHT22;48140;45.486;9.226;2023-04-24T04:12:36;13.60;99.90
62154;DHT22;48140;45.486;9.226;2023-04-24T04:15:02;13.60;99.90
62154;DHT22;48140;45.486;9.226;2023-04-24T04:17:28;13.60;99.90
62154;DHT22;48140;45.486;9.226;2023-04-24T04:19:54;13.50;99.90
62154;DHT22;48140;45.486;9.226;2023-04-24T04:22:20;13.50;99.90
62154;DHT22;48140;45.486;9.226;2023-04-24T04:24:47;13.70;99.90
62154;DHT22;48140;45.486;9.226;2023-04-24T04:27:16;13.30;99.90
62154;DHT22;48140;45.486;9.226;2023-04-24T04:29:44;13.60;99.90
